Prestwick, United Kingdom

9:16 PM BST on August 25, 2016 (GMT +0100)
Crummieholm Gardens | | Change Station

Elev 95 ft 55.55 °N, 4.63 °W | Updated 8 minutes ago

Scattered Clouds
Scattered Clouds
61.9 °F
Feels Like 61.9 °F
N
0.6
Wind Variable Wind from SE
Gusts 1.9 mph

Today
High -- | Low -- °F
--% Chance of Precip.
Yesterday
High -- | Low -- °F
Precip. -- in
Pressure 29.92 in
Visibility 6.2 miles
Clouds Scattered Clouds 2400 ft
Dew Point 58 °F
Humidity 86%
Rainfall 0.00 in
Snow Depth Not available.
6:10 AM 8:28 PM
Last Quarter, 42% visible
METAR EGPK 251950Z 14002KT 9999 SCT024 16/13 Q1013
Pressure 29.92 in
Visibility 6.2 miles
Clouds Scattered Clouds 2400 ft
Dew Point 58 °F
Humidity 86%
Rainfall 0.00 in
Snow Depth Not available.
6:10 AM 8:28 PM
Last Quarter, 42% visible
METAR EGPK 251950Z 14002KT 9999 SCT024 16/13 Q1013

10-Day Weather Forecast

×

Almanac

Astronomy

Aug. 25, 2016 Rise Set
Actual Time
Civil Twilight
Nautical Twilight
Astronomical Twilight
Moon
Length of Visible Light
Length of Day
Tomorrow will be .
, % of the Moon is Illuminated

Today's Extremes

Country Highs Country Lows

Community

WunderPhotos

Upload Photos

1,934,921 photos uploaded!

WunderBlog® & News

Nearby

Air Quality

  Air Quality AQ Index Pollutant
Not available.

Snow Depth

Station Depth Elevation

Earthquake Activity

City Distance Mag. Time & Date
Minimum magnitude displayed is 2.5.

Coastal Water Temperatures

Place Temperature

Stations

Nearby Weather Stations

Station Location Temp. Windchill Dew Point Humidity Wind Precip. Elev Updated Type